Time;durP1;ratioP1;P1;durP2;ratioP2;P2;SDS_P1;SDS_P2;PMS_P1;PMS_P2;Temp;Humidity;BMP_temperature;BMP_pressure;BME280_temperature;BME280_humidity;BME280_pressure;Samples;Min_cycle;Max_cycle;Signal;HPM_P1;HPM_P2
2023/06/24 00:02:23;;;;;;;13.90;7.35;;;;;;;-146.26;100.00;65085.03;5202779;28;20025;-70
2023/06/24 00:04:54;;;;;;;17.63;7.97;;;;;;;-146.26;100.00;65085.03;5202970;28;20029;-70
2023/06/24 00:07:26;;;;;;;11.73;7.82;;;;;;;-146.26;100.00;65085.03;5202071;28;20029;-70
2023/06/24 00:09:56;;;;;;;14.40;7.25;;;;;;;-146.26;100.00;65085.03;5202810;28;20044;-70
2023/06/24 00:12:27;;;;;;;18.45;7.75;;;;;;;-146.26;100.00;65085.03;5202404;28;20679;-70
2023/06/24 00:14:57;;;;;;;13.40;7.95;;;;;;;-146.26;100.00;65085.03;5202726;28;20021;-70
2023/06/24 00:17:28;;;;;;;18.98;8.27;;;;;;;-146.26;100.00;65085.03;5202134;28;20124;-70
2023/06/24 00:19:58;;;;;;;17.50;7.95;;;;;;;-146.26;100.00;65085.03;5202815;28;20061;-70
2023/06/24 00:22:29;;;;;;;15.45;8.00;;;;;;;-146.26;100.00;65085.03;5202187;28;20040;-70
2023/06/24 00:25:00;;;;;;;16.98;8.05;;;;;;;-146.26;100.00;65085.03;5202389;28;20036;-70
2023/06/24 00:27:30;;;;;;;18.92;7.85;;;;;;;-146.26;100.00;65085.03;5205660;28;20025;-70
2023/06/24 00:30:01;;;;;;;14.88;8.02;;;;;;;-146.26;100.00;65085.03;5209561;28;20367;-70
2023/06/24 00:32:31;;;;;;;13.68;7.85;;;;;;;-146.26;100.00;65085.03;5209618;28;20033;-70
2023/06/24 00:35:02;;;;;;;15.70;8.70;;;;;;;-146.26;100.00;65085.03;5209072;28;20025;-70
2023/06/24 00:37:32;;;;;;;15.25;8.73;;;;;;;-146.26;100.00;65085.03;5208590;28;20033;-70
2023/06/24 00:40:03;;;;;;;14.13;8.93;;;;;;;-146.26;100.00;65085.03;5209393;28;20021;-70
2023/06/24 00:42:33;;;;;;;17.45;8.95;;;;;;;-146.26;100.00;65085.03;5209473;28;20045;-70
2023/06/24 00:45:04;;;;;;;14.35;8.30;;;;;;;-146.26;100.00;65085.03;5209357;28;20020;-70
2023/06/24 00:47:35;;;;;;;18.77;8.32;;;;;;;-146.26;100.00;65085.03;5208290;28;20024;-69
2023/06/24 00:50:06;;;;;;;19.80;8.45;;;;;;;-146.26;100.00;65085.03;5209238;28;20079;-70
2023/06/24 00:52:38;;;;;;;17.00;8.32;;;;;;;-146.26;100.00;65085.03;5208882;28;20664;-70
2023/06/24 00:55:12;;;;;;;20.90;8.48;;;;;;;-146.26;100.00;65085.03;5209194;28;20040;-70
2023/06/24 00:57:44;;;;;;;12.85;8.02;;;;;;;-146.26;100.00;65085.03;5208398;28;20025;-70
2023/06/24 01:00:17;;;;;;;12.13;7.22;;;;;;;-146.26;100.00;65085.03;5209131;28;20029;-70
2023/06/24 01:02:48;;;;;;;19.35;8.23;;;;;;;-146.26;100.00;65085.03;5209548;28;20079;-70
2023/06/24 01:05:23;;;;;;;12.98;8.43;;;;;;;-146.26;100.00;65085.03;5209579;28;20025;-69
2023/06/24 01:07:55;;;;;;;16.38;7.95;;;;;;;-146.26;100.00;65085.03;5208854;28;20032;-70
2023/06/24 01:10:25;;;;;;;15.85;8.15;;;;;;;-146.26;100.00;65085.03;5209153;28;20045;-70
2023/06/24 01:12:56;;;;;;;15.73;8.27;;;;;;;-146.26;100.00;65085.03;5209062;28;20116;-70
2023/06/24 01:15:28;;;;;;;15.73;8.57;;;;;;;-146.26;100.00;65085.03;5209128;28;20025;-70
2023/06/24 01:18:20;;;;;;;14.70;8.68;;;;;;;-146.26;100.00;65085.03;5208647;28;20403;-70
2023/06/24 01:21:15;;;;;;;21.83;11.73;;;;;;;-146.26;100.00;65085.03;5208897;28;20049;-70
2023/06/24 01:24:14;;;;;;;21.92;11.32;;;;;;;-146.26;100.00;65085.03;5207563;28;20112;-70
2023/06/24 01:27:17;;;;;;;16.75;9.90;;;;;;;-146.26;100.00;65085.03;5207347;28;20510;-70
2023/06/24 01:30:23;;;;;;;20.73;10.02;;;;;;;-146.26;100.00;65085.03;5209239;28;20079;-70
2023/06/24 01:32:59;;;;;;;20.38;10.35;;;;;;;-146.26;100.00;65085.03;5209203;28;20033;-70
2023/06/24 01:35:34;;;;;;;26.75;11.48;;;;;;;-146.26;100.00;65085.03;5208656;28;20033;-70
2023/06/24 01:38:10;;;;;;;21.10;10.35;;;;;;;-146.26;100.00;65085.03;5207778;28;20383;-70
2023/06/24 01:40:44;;;;;;;19.20;9.27;;;;;;;-146.26;100.00;65085.03;5205730;28;20021;-70
2023/06/24 01:43:17;;;;;;;17.75;10.10;;;;;;;-146.26;100.00;65085.03;5205931;28;20103;-70
2023/06/24 01:45:51;;;;;;;20.90;10.02;;;;;;;-146.26;100.00;65085.03;5205248;28;20032;-70
2023/06/24 01:48:25;;;;;;;15.70;9.17;;;;;;;-146.26;100.00;65085.03;5205631;28;20033;-70
2023/06/24 01:51:14;;;;;;;16.67;9.73;;;;;;;-146.26;100.00;65085.03;5204524;28;20033;-70
2023/06/24 01:53:54;;;;;;;17.45;9.52;;;;;;;-146.26;100.00;65085.03;5205604;28;20124;-70
2023/06/24 01:56:27;;;;;;;14.93;9.30;;;;;;;-146.26;100.00;65085.03;5204903;28;20025;-70
2023/06/24 01:59:00;;;;;;;17.30;9.90;;;;;;;-146.26;100.00;65085.03;5205408;28;20052;-70
2023/06/24 02:01:33;;;;;;;18.33;9.73;;;;;;;-146.26;100.00;65085.03;5205622;28;20040;-70
2023/06/24 02:04:07;;;;;;;15.25;8.68;;;;;;;-146.26;100.00;65085.03;5205255;28;20364;-70
2023/06/24 02:06:41;;;;;;;18.27;9.90;;;;;;;-146.26;100.00;65085.03;5204977;28;20021;-70
2023/06/24 02:09:13;;;;;;;17.27;9.43;;;;;;;-146.26;100.00;65085.03;5205109;28;20483;-70
2023/06/24 02:11:44;;;;;;;20.48;9.52;;;;;;;-146.26;100.00;65085.03;5205207;28;20050;-70
2023/06/24 02:14:17;;;;;;;16.35;8.23;;;;;;;-146.26;100.00;65085.03;5205039;28;20026;-70
2023/06/24 02:16:49;;;;;;;15.80;7.53;;;;;;;-146.26;100.00;65085.03;5204369;28;20053;-70
2023/06/24 02:19:20;;;;;;;14.82;9.02;;;;;;;-146.26;100.00;65085.03;5204683;28;20391;-70
2023/06/24 02:21:52;;;;;;;17.30;8.90;;;;;;;-146.26;100.00;65085.03;5204914;28;20026;-70
2023/06/24 02:24:24;;;;;;;17.98;9.18;;;;;;;-146.26;100.00;65085.03;5204923;28;20040;-70
2023/06/24 02:26:57;;;;;;;19.50;10.23;;;;;;;-146.26;100.00;65085.03;5204542;28;20033;-70
2023/06/24 02:29:30;;;;;;;21.60;10.48;;;;;;;-146.26;100.00;65085.03;5205001;28;20018;-70
2023/06/24 02:32:00;;;;;;;16.50;10.95;;;;;;;-146.26;100.00;65085.03;5204680;28;20066;-70
2023/06/24 02:34:31;;;;;;;27.02;7.45;;;;;;;-146.26;100.00;65085.03;5204703;28;20096;-70
2023/06/24 02:37:01;;;;;;;24.00;5.43;;;;;;;-146.26;100.00;65085.03;5204406;28;20037;-70
2023/06/24 02:39:32;;;;;;;11.85;6.63;;;;;;;-146.26;100.00;65085.03;5205025;28;20074;-70
2023/06/24 02:42:03;;;;;;;17.55;9.40;;;;;;;-146.26;100.00;65085.03;5204715;28;20048;-70
2023/06/24 02:44:33;;;;;;;25.75;12.10;;;;;;;-146.26;100.00;65085.03;5204363;28;20025;-70
2023/06/24 02:47:05;;;;;;;21.20;11.63;;;;;;;-146.26;100.00;65085.03;5204251;28;20052;-70
2023/06/24 02:49:38;;;;;;;21.67;11.82;;;;;;;-146.26;100.00;65085.03;5204120;28;20032;-70
2023/06/24 02:52:09;;;;;;;23.63;12.40;;;;;;;-146.26;100.00;65085.03;5204650;28;20156;-70
2023/06/24 02:54:40;;;;;;;17.98;10.27;;;;;;;-146.26;100.00;65085.03;5204063;28;20541;-70
2023/06/24 02:57:14;;;;;;;31.98;8.88;;;;;;;-146.26;100.00;65085.03;5204183;28;20033;-70
2023/06/24 02:59:44;;;;;;;28.20;7.57;;;;;;;-146.26;100.00;65085.03;5204404;28;20045;-70
2023/06/24 03:02:16;;;;;;;18.55;6.85;;;;;;;-146.26;100.00;65085.03;5204450;28;20025;-70
2023/06/24 03:04:48;;;;;;;12.57;6.90;;;;;;;-146.26;100.00;65085.03;5202895;28;20030;-69
2023/06/24 03:07:20;;;;;;;15.00;9.30;;;;;;;-146.26;100.00;65085.03;5203424;28;20401;-69
2023/06/24 03:09:51;;;;;;;14.90;8.85;;;;;;;-146.26;100.00;65085.03;5204381;28;20026;-69
2023/06/24 03:12:22;;;;;;;18.98;10.73;;;;;;;-146.26;100.00;65085.03;5204189;28;20088;-70
2023/06/24 03:14:52;;;;;;;22.17;11.65;;;;;;;-146.26;100.00;65085.03;5204056;28;20549;-69
2023/06/24 03:17:24;;;;;;;18.85;11.10;;;;;;;-146.26;100.00;65085.03;5203295;28;20028;-69
2023/06/24 03:19:55;;;;;;;18.10;9.55;;;;;;;-146.26;100.00;65085.03;5203880;28;20467;-70
2023/06/24 03:22:25;;;;;;;14.60;9.18;;;;;;;-146.26;100.00;65085.03;5203718;28;20036;-69
2023/06/24 03:24:56;;;;;;;16.17;8.23;;;;;;;-146.26;100.00;65085.03;5203928;28;20399;-69
2023/06/24 03:27:27;;;;;;;16.67;9.23;;;;;;;-146.26;100.00;65085.03;5203218;28;20072;-69
2023/06/24 03:29:57;;;;;;;22.98;9.90;;;;;;;-146.26;100.00;65085.03;5203770;28;20509;-69
2023/06/24 03:32:28;;;;;;;17.38;9.30;;;;;;;-146.26;100.00;65085.03;5203679;28;20091;-69
2023/06/24 03:34:58;;;;;;;14.50;9.32;;;;;;;-146.26;100.00;65085.03;5203570;28;20025;-69
2023/06/24 03:37:29;;;;;;;17.05;9.27;;;;;;;-146.26;100.00;65085.03;5203252;28;20494;-69
2023/06/24 03:39:59;;;;;;;17.08;9.23;;;;;;;-146.26;100.00;65085.03;5203667;28;20136;-69
2023/06/24 03:42:29;;;;;;;21.13;9.30;;;;;;;-146.26;100.00;65085.03;5203493;28;20403;-70
2023/06/24 03:45:00;;;;;;;17.88;9.02;;;;;;;-146.26;100.00;65085.03;5203525;28;20675;-70
2023/06/24 03:47:30;;;;;;;16.73;10.43;;;;;;;-146.26;100.00;65085.03;5202658;28;20490;-70
2023/06/24 03:50:01;;;;;;;25.92;12.23;;;;;;;-146.26;100.00;65085.03;5203530;28;20033;-69
2023/06/24 03:52:31;;;;;;;23.40;11.15;;;;;;;-146.26;100.00;65085.03;5202525;28;20430;-69
2023/06/24 03:55:04;;;;;;;19.50;11.82;;;;;;;-146.26;100.00;65085.03;5203048;28;20088;-69
2023/06/24 03:57:35;;;;;;;18.75;10.68;;;;;;;-146.26;100.00;65085.03;5202831;28;20060;-69
2023/06/24 04:02:53;;;;;;;28.60;11.13;;;;;;;-146.26;100.00;65085.03;5202720;28;20021;-69
2023/06/24 04:05:24;;;;;;;61.55;10.57;;;;;;;-146.26;100.00;65085.03;5203286;28;20116;-69
2023/06/24 04:07:55;;;;;;;27.27;8.45;;;;;;;-146.26;100.00;65085.03;5202632;28;20025;-69
2023/06/24 04:10:25;;;;;;;14.20;9.05;;;;;;;-146.26;100.00;65085.03;5203364;28;20029;-69
2023/06/24 04:12:56;;;;;;;14.07;8.35;;;;;;;-146.26;100.00;65085.03;5216460;28;20108;-69
2023/06/24 04:15:26;;;;;;;16.40;10.32;;;;;;;-146.26;100.00;65085.03;5202947;28;20022;-69
2023/06/24 04:17:56;;;;;;;16.15;8.93;;;;;;;-146.26;100.00;65085.03;5202331;28;20065;-69
2023/06/24 04:20:27;;;;;;;17.75;9.60;;;;;;;-146.26;100.00;65085.03;5202957;28;20025;-69
2023/06/24 04:22:58;;;;;;;17.83;10.20;;;;;;;-146.26;100.00;65085.03;5203064;28;20021;-69
2023/06/24 04:25:28;;;;;;;19.63;10.23;;;;;;;-146.26;100.00;65085.03;5202804;28;20036;-69
2023/06/24 04:27:58;;;;;;;16.00;10.55;;;;;;;-146.26;100.00;65085.03;5202647;28;20061;-69
2023/06/24 04:30:29;;;;;;;15.07;9.70;;;;;;;-146.26;100.00;65085.03;5196016;28;20079;-70
2023/06/24 04:32:59;;;;;;;16.63;9.95;;;;;;;-146.26;100.00;65085.03;5202187;28;20029;-70
2023/06/24 04:35:30;;;;;;;15.93;9.80;;;;;;;-146.26;100.00;65085.03;5189668;28;20048;-70
2023/06/24 04:38:00;;;;;;;15.93;9.75;;;;;;;-146.26;100.00;65085.03;5202466;28;20475;-70
2023/06/24 04:40:31;;;;;;;15.73;9.30;;;;;;;-146.26;100.00;65085.03;5203063;28;20086;-70
2023/06/24 04:43:01;;;;;;;20.50;10.73;;;;;;;-146.26;100.00;65085.03;5202767;28;20021;-70
2023/06/24 04:45:32;;;;;;;21.73;10.52;;;;;;;-146.26;100.00;65085.03;5202787;28;20112;-70
2023/06/24 04:48:02;;;;;;;17.90;9.57;;;;;;;-146.26;100.00;65085.03;5202280;28;20052;-70
2023/06/24 04:50:33;;;;;;;15.95;9.77;;;;;;;-146.26;100.00;65085.03;5202937;28;20028;-70
2023/06/24 04:53:03;;;;;;;16.92;9.18;;;;;;;-146.26;100.00;65085.03;5202695;28;20160;-70
2023/06/24 04:55:34;;;;;;;18.80;10.70;;;;;;;-146.26;100.00;65085.03;5202317;28;20025;-70
2023/06/24 04:58:04;;;;;;;17.98;9.52;;;;;;;-146.26;100.00;65085.03;5202451;28;20108;-70
2023/06/24 05:00:35;;;;;;;27.85;9.60;;;;;;;-146.26;100.00;65085.03;5202564;28;20136;-70
2023/06/24 05:03:05;;;;;;;17.00;9.98;;;;;;;-146.26;100.00;65085.03;5202973;28;20091;-70
2023/06/24 05:05:36;;;;;;;17.80;9.32;;;;;;;-146.26;100.00;65085.03;5202327;28;20168;-70
2023/06/24 05:08:06;;;;;;;17.13;10.05;;;;;;;-146.26;100.00;65085.03;5202269;28;20551;-70
2023/06/24 05:10:37;;;;;;;14.15;9.57;;;;;;;-146.26;100.00;65085.03;5202438;28;20043;-71
2023/06/24 05:13:07;;;;;;;20.60;9.52;;;;;;;-146.26;100.00;65085.03;5202813;28;20057;-70
2023/06/24 05:15:37;;;;;;;18.65;9.60;;;;;;;-146.26;100.00;65085.03;5205595;28;20115;-70
2023/06/24 05:18:08;;;;;;;17.73;9.27;;;;;;;-146.26;100.00;65085.03;5205927;28;20034;-70
2023/06/24 05:20:38;;;;;;;16.88;8.30;;;;;;;-146.26;100.00;65085.03;5206090;28;20025;-70
2023/06/24 05:23:09;;;;;;;13.23;8.07;;;;;;;-146.26;100.00;65085.03;5206685;28;20028;-70
2023/06/24 05:25:39;;;;;;;16.10;8.57;;;;;;;-146.26;100.00;65085.03;5205807;28;20724;-70
2023/06/24 05:28:16;;;;;;;17.33;8.45;;;;;;;-146.26;100.00;65085.03;5199353;28;20128;-70
2023/06/24 05:30:47;;;;;;;14.30;7.95;;;;;;;-146.26;100.00;65085.03;5200389;28;20055;-70
2023/06/24 05:33:17;;;;;;;11.82;7.13;;;;;;;-146.26;100.00;65085.03;5204471;28;20057;-70
2023/06/24 05:35:49;;;;;;;13.25;7.70;;;;;;;-146.26;100.00;65085.03;5204013;28;20021;-70
2023/06/24 05:38:19;;;;;;;15.40;7.85;;;;;;;-146.26;100.00;65085.03;5204538;28;20040;-70
2023/06/24 05:40:50;;;;;;;17.65;8.20;;;;;;;-146.26;100.00;65085.03;5204699;28;20021;-70
2023/06/24 05:43:20;;;;;;;12.77;6.78;;;;;;;-146.26;100.00;65085.03;5204467;28;20488;-70
2023/06/24 05:45:51;;;;;;;17.50;7.70;;;;;;;-146.26;100.00;65085.03;5203693;28;20116;-70
2023/06/24 05:48:21;;;;;;;13.45;6.93;;;;;;;-146.26;100.00;65085.03;5204384;28;20437;-70
2023/06/24 05:50:52;;;;;;;11.02;6.22;;;;;;;-146.26;100.00;65085.03;5204183;28;20037;-70
2023/06/24 05:53:22;;;;;;;14.05;5.45;;;;;;;-146.26;100.00;65085.03;5204176;28;20471;-70
2023/06/24 05:55:53;;;;;;;12.48;6.15;;;;;;;-146.26;100.00;65085.03;5203447;28;20111;-70
2023/06/24 05:58:23;;;;;;;10.57;5.60;;;;;;;-146.26;100.00;65085.03;5204087;28;20048;-70
2023/06/24 06:00:55;;;;;;;11.38;6.40;;;;;;;-146.26;100.00;65085.03;5204246;28;20029;-71
2023/06/24 06:03:25;;;;;;;14.48;5.80;;;;;;;-146.26;100.00;65085.03;5204627;28;20032;-70
2023/06/24 06:05:56;;;;;;;10.55;5.18;;;;;;;-146.26;100.00;65085.03;5203444;28;20506;-70
2023/06/24 06:08:26;;;;;;;8.30;4.50;;;;;;;-146.26;100.00;65085.03;5204059;28;20034;-70
2023/06/24 06:10:57;;;;;;;7.97;4.85;;;;;;;-146.26;100.00;65085.03;5203951;28;20034;-70
2023/06/24 06:13:27;;;;;;;9.98;4.40;;;;;;;-146.26;100.00;65085.03;5204092;28;20091;-70
2023/06/24 06:15:59;;;;;;;9.32;4.32;;;;;;;-146.26;100.00;65085.03;5202964;28;20057;-70
2023/06/24 06:18:29;;;;;;;7.07;4.50;;;;;;;-146.26;100.00;65085.03;5202919;28;20498;-70
2023/06/24 06:21:00;;;;;;;7.38;3.97;;;;;;;-146.26;100.00;65085.03;5203177;28;20021;-70
2023/06/24 06:23:30;;;;;;;7.20;3.88;;;;;;;-146.26;100.00;65085.03;5202860;28;20028;-71
2023/06/24 06:26:01;;;;;;;7.63;3.83;;;;;;;-146.26;100.00;65085.03;5202325;28;20029;-71
2023/06/24 06:28:31;;;;;;;7.95;4.07;;;;;;;-146.26;100.00;65085.03;5202897;28;20376;-71
2023/06/24 06:31:02;;;;;;;8.02;3.85;;;;;;;-146.26;100.00;65085.03;5203539;28;20503;-71
2023/06/24 06:33:32;;;;;;;8.55;3.95;;;;;;;-146.26;100.00;65085.03;5202960;28;20029;-71
2023/06/24 06:36:03;;;;;;;5.85;3.70;;;;;;;-146.26;100.00;65085.03;5202697;28;20152;-71
2023/06/24 06:38:34;;;;;;;5.20;3.90;;;;;;;-146.26;100.00;65085.03;5203108;28;20523;-71
2023/06/24 06:41:04;;;;;;;6.18;3.40;;;;;;;-146.26;100.00;65085.03;5203128;28;20029;-71
2023/06/24 06:43:35;;;;;;;9.95;3.80;;;;;;;-146.26;100.00;65085.03;5203043;28;20026;-71
2023/06/24 06:46:05;;;;;;;7.18;3.40;;;;;;;-146.26;100.00;65085.03;5202195;28;20060;-71
2023/06/24 06:48:35;;;;;;;8.43;4.07;;;;;;;-146.26;100.00;65085.03;5202693;28;20119;-71
2023/06/24 06:51:06;;;;;;;5.60;3.85;;;;;;;-146.26;100.00;65085.03;5202869;28;20033;-71
2023/06/24 06:53:36;;;;;;;6.35;3.97;;;;;;;-146.26;100.00;65085.03;5202842;28;20052;-71
2023/06/24 06:56:07;;;;;;;8.15;4.20;;;;;;;-146.26;100.00;65085.03;5201959;28;20614;-71
2023/06/24 06:58:38;;;;;;;7.10;3.92;;;;;;;-146.26;100.00;65085.03;5202525;28;20739;-71
2023/06/24 07:01:08;;;;;;;8.35;4.35;;;;;;;-146.26;100.00;65085.03;5202618;28;20056;-71
2023/06/24 07:03:39;;;;;;;8.07;3.88;;;;;;;-146.26;100.00;65085.03;5202946;28;20690;-71
2023/06/24 07:06:10;;;;;;;8.45;3.78;;;;;;;-146.26;100.00;65085.03;5201984;28;20028;-71
2023/06/24 07:08:40;;;;;;;8.95;3.85;;;;;;;-146.26;100.00;65085.03;5202855;28;20060;-71
2023/06/24 07:11:11;;;;;;;7.80;3.95;;;;;;;-146.26;100.00;65085.03;5202038;28;20061;-71
2023/06/24 07:13:41;;;;;;;7.00;3.70;;;;;;;-146.26;100.00;65085.03;5215932;28;20589;-71
2023/06/24 07:16:12;;;;;;;7.03;4.32;;;;;;;-146.26;100.00;65085.03;5202417;28;20021;-70
2023/06/24 07:18:42;;;;;;;7.10;4.28;;;;;;;-146.26;100.00;65085.03;5202361;28;20055;-71
2023/06/24 07:21:12;;;;;;;5.10;3.45;;;;;;;-146.26;100.00;65085.03;5202962;28;20550;-71
2023/06/24 07:23:43;;;;;;;6.10;3.97;;;;;;;-146.26;100.00;65085.03;5201372;28;20029;-71
2023/06/24 07:26:13;;;;;;;6.50;3.70;;;;;;;-146.26;100.00;65085.03;5203884;28;20021;-71
2023/06/24 07:28:44;;;;;;;9.18;3.70;;;;;;;-146.26;100.00;65085.03;5203278;28;20032;-71
2023/06/24 07:31:14;;;;;;;6.07;3.15;;;;;;;-146.26;100.00;65085.03;5203537;28;20082;-71
2023/06/24 07:33:45;;;;;;;7.93;3.90;;;;;;;-146.26;100.00;65085.03;5202681;28;20471;-71
2023/06/24 07:36:15;;;;;;;4.95;3.10;;;;;;;-146.26;100.00;65085.03;5213860;28;20098;-72
2023/06/24 07:38:45;;;;;;;3.95;3.10;;;;;;;-146.26;100.00;65085.03;5216381;28;20013;-71
2023/06/24 07:41:16;;;;;;;6.07;3.75;;;;;;;-146.26;100.00;65085.03;5202765;28;20091;-71
2023/06/24 07:43:46;;;;;;;6.00;2.85;;;;;;;-146.26;100.00;65085.03;5201276;28;20471;-71
2023/06/24 07:46:17;;;;;;;6.20;3.20;;;;;;;-146.26;100.00;65085.03;5201220;28;20570;-71
2023/06/24 07:48:47;;;;;;;8.65;3.30;;;;;;;-146.26;100.00;65085.03;5200157;28;20045;-71
2023/06/24 07:51:18;;;;;;;3.97;3.28;;;;;;;-146.26;100.00;65085.03;5200328;28;20021;-72
2023/06/24 07:53:48;;;;;;;8.40;3.65;;;;;;;-146.26;100.00;65085.03;5201677;28;20037;-72
2023/06/24 07:56:19;;;;;;;5.90;3.13;;;;;;;-146.26;100.00;65085.03;5199789;28;20044;-71
2023/06/24 07:58:49;;;;;;;7.25;3.20;;;;;;;-146.26;100.00;65085.03;5201468;28;20026;-71
2023/06/24 08:01:21;;;;;;;5.15;3.05;;;;;;;-146.26;100.00;65085.03;5201845;28;20105;-71
2023/06/24 08:03:51;;;;;;;5.05;2.78;;;;;;;-146.26;100.00;65085.03;5199103;28;20035;-72
2023/06/24 08:06:22;;;;;;;7.97;2.85;;;;;;;-146.26;100.00;65085.03;5199370;28;20539;-72
2023/06/24 08:08:53;;;;;;;3.78;2.65;;;;;;;-146.26;100.00;65085.03;5199579;28;20510;-71
2023/06/24 08:11:23;;;;;;;5.60;3.45;;;;;;;-146.26;100.00;65085.03;5197987;28;20029;-71
2023/06/24 08:13:54;;;;;;;5.35;3.10;;;;;;;-146.26;100.00;65085.03;5200245;28;20128;-72
2023/06/24 08:16:24;;;;;;;5.80;2.92;;;;;;;-146.26;100.00;65085.03;5197993;28;20075;-72
2023/06/24 08:18:54;;;;;;;4.45;3.10;;;;;;;-146.26;100.00;65085.03;5197350;28;20605;-72
2023/06/24 08:21:25;;;;;;;5.95;2.92;;;;;;;-146.26;100.00;65085.03;5201197;28;20079;-72
2023/06/24 08:23:55;;;;;;;4.30;2.90;;;;;;;-146.26;100.00;65085.03;5199137;28;20033;-72
2023/06/24 08:26:26;;;;;;;4.30;3.00;;;;;;;-146.26;100.00;65085.03;5200219;28;20439;-72
2023/06/24 08:28:58;;;;;;;3.30;2.88;;;;;;;-146.26;100.00;65085.03;5200623;28;20064;-72
2023/06/24 08:31:29;;;;;;;4.00;2.60;;;;;;;-146.26;100.00;65085.03;5200910;28;20148;-72
2023/06/24 08:34:02;;;;;;;4.43;2.88;;;;;;;-146.26;100.00;65085.03;5200881;28;20049;-72
2023/06/24 08:36:32;;;;;;;4.20;2.30;;;;;;;-146.26;100.00;65085.03;5199623;28;20033;-72
2023/06/24 08:39:03;;;;;;;4.32;2.80;;;;;;;-146.26;100.00;65085.03;5201159;28;20031;-71
2023/06/24 08:41:33;;;;;;;3.15;2.30;;;;;;;-146.26;100.00;65085.03;5200530;28;20667;-72
2023/06/24 08:44:04;;;;;;;3.65;2.38;;;;;;;-146.26;100.00;65085.03;5200147;28;20032;-72
2023/06/24 08:46:36;;;;;;;5.22;1.83;;;;;;;-146.26;100.00;65085.03;5200031;28;20104;-72
2023/06/24 08:49:14;;;;;;;3.45;2.28;;;;;;;-146.26;100.00;65085.03;5203371;28;20038;-72
2023/06/24 08:51:47;;;;;;;4.88;2.42;;;;;;;-146.26;100.00;65085.03;5205060;28;20112;-72
2023/06/24 08:54:19;;;;;;;9.50;3.13;;;;;;;-146.26;100.00;65085.03;5204144;28;20075;-73
2023/06/24 08:56:50;;;;;;;3.63;2.55;;;;;;;-146.26;100.00;65085.03;5203062;28;20132;-72
2023/06/24 08:59:21;;;;;;;5.60;2.63;;;;;;;-146.26;100.00;65085.03;5203876;28;20097;-72
2023/06/24 09:01:51;;;;;;;4.20;2.85;;;;;;;-146.26;100.00;65085.03;5204670;28;20025;-72
2023/06/24 09:04:22;;;;;;;6.13;2.58;;;;;;;-146.26;100.00;65085.03;5201641;28;20614;-72
2023/06/24 09:06:52;;;;;;;3.42;2.35;;;;;;;-146.26;100.00;65085.03;5203355;28;20033;-72
2023/06/24 09:09:23;;;;;;;4.85;2.80;;;;;;;-146.26;100.00;65085.03;5204001;28;20108;-72
2023/06/24 09:11:57;;;;;;;4.10;2.20;;;;;;;-146.26;100.00;65085.03;5203967;28;20045;-72
2023/06/24 09:14:29;;;;;;;4.13;2.15;;;;;;;-146.26;100.00;65085.03;5204440;28;20025;-72
2023/06/24 09:17:01;;;;;;;5.22;2.70;;;;;;;-146.26;100.00;65085.03;5202812;28;20570;-72
2023/06/24 09:19:36;;;;;;;3.53;2.50;;;;;;;-146.26;100.00;65085.03;5203578;28;20026;-72
2023/06/24 09:22:07;;;;;;;4.13;2.00;;;;;;;-146.26;100.00;65085.03;5203719;28;20040;-72
2023/06/24 09:24:38;;;;;;;5.40;2.50;;;;;;;-146.26;100.00;65085.03;5204161;28;20036;-72
2023/06/24 09:27:08;;;;;;;5.25;1.80;;;;;;;-146.26;100.00;65085.03;5203592;28;20100;-72
2023/06/24 09:29:40;;;;;;;2.75;2.17;;;;;;;-146.26;100.00;65085.03;5204716;28;20047;-72
2023/06/24 09:32:11;;;;;;;6.63;2.20;;;;;;;-146.26;100.00;65085.03;5204009;28;20029;-72
2023/06/24 09:34:43;;;;;;;2.58;1.88;;;;;;;-146.26;100.00;65085.03;5204017;28;20112;-72
2023/06/24 09:37:22;;;;;;;2.88;2.00;;;;;;;-146.26;100.00;65085.03;5202965;28;20497;-72
2023/06/24 09:39:54;;;;;;;3.65;2.03;;;;;;;-146.26;100.00;65085.03;5204265;28;20029;-72
2023/06/24 09:42:24;;;;;;;3.55;2.30;;;;;;;-146.26;100.00;65085.03;5202752;28;20107;-73
2023/06/24 09:44:55;;;;;;;5.10;2.17;;;;;;;-146.26;100.00;65085.03;5202683;28;20068;-73
2023/06/24 09:47:27;;;;;;;4.65;2.15;;;;;;;-146.26;100.00;65085.03;5202033;28;20033;-72
2023/06/24 09:49:57;;;;;;;2.90;2.00;;;;;;;-146.26;100.00;65085.03;5202105;28;20394;-72
2023/06/24 09:52:28;;;;;;;3.30;2.00;;;;;;;-146.26;100.00;65085.03;5203421;28;20179;-73
2023/06/24 09:55:00;;;;;;;4.65;1.77;;;;;;;-146.26;100.00;65085.03;5203095;28;20108;-72
2023/06/24 09:57:33;;;;;;;4.20;1.60;;;;;;;-146.26;100.00;65085.03;5201665;28;20021;-72
2023/06/24 10:00:04;;;;;;;3.40;2.05;;;;;;;-146.26;100.00;65085.03;5202843;28;20097;-72
2023/06/24 10:02:34;;;;;;;3.35;1.95;;;;;;;-146.26;100.00;65085.03;5202989;28;20061;-72
2023/06/24 10:05:05;;;;;;;6.15;2.30;;;;;;;-146.26;100.00;65085.03;5203442;28;20743;-72
2023/06/24 10:07:37;;;;;;;7.60;2.25;;;;;;;-146.26;100.00;65085.03;5202750;28;20102;-72
2023/06/24 10:10:09;;;;;;;5.88;1.77;;;;;;;-146.26;100.00;65085.03;5203298;28;20495;-72
2023/06/24 10:14:34;;;;;;;3.05;1.88;;;;;;;;;;5253806;27;20490;-72
2023/06/24 10:17:04;;;;;;;4.72;1.95;;;;;;;;;;5232890;28;82229;-72
2023/06/24 10:19:40;;;;;;;4.43;2.03;;;;;;;;;;5239365;28;20082;-71
2023/06/24 10:22:11;;;;;;;3.03;2.03;;;;;;;;;;5238753;28;20020;-72
2023/06/24 10:24:44;;;;;;;2.60;1.75;;;;;;;;;;5238712;28;20086;-72
2023/06/24 10:31:12;;;;;;;6.63;2.10;;;;;;;;;;5236245;27;86877;-72
2023/06/24 10:33:52;;;;;;;3.43;2.00;;;;;;;;;;5237861;28;20111;-72
2023/06/24 10:36:31;;;;;;;2.90;1.90;;;;;;;;;;5237853;28;20275;-72
2023/06/24 10:39:01;;;;;;;3.17;1.70;;;;;;;;;;5239760;28;20025;-72
2023/06/24 10:41:32;;;;;;;4.45;1.80;;;;;;;;;;5237815;28;20496;-72
2023/06/24 10:44:14;;;;;;;2.53;1.90;;;;;;;;;;5239608;28;20016;-72
2023/06/24 10:46:53;;;;;;;2.65;1.90;;;;;;;;;;5238426;28;20340;-72
2023/06/24 10:49:23;;;;;;;2.97;1.83;;;;;;;;;;5239191;28;20017;-72
2023/06/24 10:51:53;;;;;;;2.13;1.43;;;;;;;;;;5239262;28;20071;-72
2023/06/24 10:54:23;;;;;;;4.17;1.70;;;;;;;;;;5239200;28;20259;-72
2023/06/24 10:56:55;;;;;;;4.43;1.80;;;;;;;;;;5238292;28;20318;-72
2023/06/24 10:59:25;;;;;;;4.13;1.77;;;;;;;;;;5239437;28;20023;-72
2023/06/24 11:01:56;;;;;;;4.25;1.55;;;;;;;;;;5239508;28;20100;-72
2023/06/24 11:04:26;;;;;;;4.77;2.00;;;;;;;;;;5238765;28;20029;-72
2023/06/24 11:06:58;;;;;;;5.03;2.20;;;;;;;;;;5238025;28;20266;-71
2023/06/24 11:09:28;;;;;;;3.47;1.88;;;;;;;;;;5238977;28;20027;-71
2023/06/24 11:11:58;;;;;;;3.67;1.83;;;;;;;;;;5239334;28;20502;-72
2023/06/24 11:14:29;;;;;;;2.53;1.50;;;;;;;;;;5238968;28;20020;-72
2023/06/24 11:17:00;;;;;;;2.78;1.60;;;;;;;;;;5236433;28;20029;-72
2023/06/24 11:19:32;;;;;;;3.53;1.60;;;;;;;;;;5238803;28;20027;-72
2023/06/24 11:22:02;;;;;;;3.60;1.73;;;;;;;;;;5236638;28;20021;-72
2023/06/24 11:24:33;;;;;;;4.13;1.50;;;;;;;;;;5228244;28;20017;-72
2023/06/24 11:27:04;;;;;;;3.88;1.60;;;;;;;;;;5237203;28;20052;-72
2023/06/24 11:29:34;;;;;;;2.45;1.50;;;;;;;;;;5238186;28;20036;-72
2023/06/24 11:32:07;;;;;;;1.92;1.35;;;;;;;;;;5238675;28;20021;-72
2023/06/24 11:34:37;;;;;;;3.15;1.67;;;;;;;;;;5238198;28;20029;-72
2023/06/24 11:37:26;;;;;;;2.72;1.80;;;;;;;;;;5237408;28;20043;-71
2023/06/24 11:40:07;;;;;;;2.88;1.48;;;;;;;;;;5237892;28;20036;-72
2023/06/24 11:42:39;;;;;;;3.75;1.63;;;;;;;;;;5224504;28;20099;-72
2023/06/24 11:45:10;;;;;;;3.97;1.92;;;;;;;;;;5224175;28;20083;-72
2023/06/24 11:50:04;;;;;;;2.95;1.48;;;;;;;29.86;43.78;102345.34;5281465;27;20397;-72
2023/06/24 11:52:35;;;;;;;3.97;1.70;;;;;;;29.93;42.56;102335.75;5280627;28;20027;-72
2023/06/24 11:55:25;;;;;;;1.98;1.50;;;;;;;29.94;47.01;102342.13;5281370;28;20034;-72
2023/06/24 11:57:58;;;;;;;2.95;1.75;;;;;;;30.06;48.02;102351.09;5272852;28;20537;-72